Archival Weather

NSFA McMurdo Sound

NSFA McMurdo Sound, Antarctica (NZCM)

Report from: Friday, September 23, 2022 11:30 PM UTC
Current time: Sunday, December 4, 2022 12:32 PM UTC

Current weather
Weather history
Weather forecast

Present weatherFreezing fog
Temperature-13.4°C (7.9°F)
Wind chill-22.9°C (-9.3°F)
Dew point-15.9°C (3.4°F)
Winds 13 kts (6.7 m/s, 15 mph) Vrb
Wind gusts 24 kts (12.3 m/s, 27.6 mph)
Winds variableWinds variable from East-Northeast (70°) to South (170°)
Peak wind 29 kts (14.9 m/s, 33.4 mph) South-Southeast (160°) at 18:04
Visibility0.4 mi. (0.6 km)
Clouds Ceiling: Vertical visibility 600 ft. (183 m)
Altimeter28.68 in.Hg (971 mB)
Precip. events Snow ended 11:30 PM
Relative humidity81 %
Density altitude-2,071 ft. (-631 m)
Sea-level pressure107.2 kPa (1072 mB, 31.65 in.Hg)
Remarks Fully automated report
System requires maintenance
Special weather observation
Automated weather observing station with precipitation discriminator
Flight conditions Low Instrument Meteorological Conditions
Raw dataSPECI NZCM 232330Z AUTO 12013G24KT 070V170 0600 FZFG VV006 M13/M16 A2868 RMK AO2 PK WND 16029/2304 SNE2330 SLP718 T11341159 $
An error has occurred. This application may no longer respond until reloaded. Reload 🗙